Pagina principală
METAR-TAF:

METAR-TAF

Aeroporturi :

Koror, Babeldaob, Palau

Latitudine: 07-22N, longitudine: 134-32E, elevație: 54 m

Observații meteo curente

Raportul a fost făcut în urmă cu 19 de minute, la 08:50 UTC
Vânt 7 kt de la Est/Nord-est cu rafale de până la 14 kt
Temperatură 28°C
Umiditate 79%
Presiune 1007 hPa
Vizibilitate: 24.1 km
Nori împrăștiați la o înălțime de 1600 picior
Nori fragmentați la o înălțime de 12000 picior
Total acoperit la o înălțime de 30000 picior

METAR: PTRO 290850Z 06007G14KT 15SM SCT016 BKN120 OVC300 28/24 A2975

Ora: 18:09 (09:09 UTC)

Prognoză

Raportul a fost făcut în urmă cu 3 ore și 44 de minute, la 05:25 UTC
Prognoză valabilă de la 29 ora 06 UTC la 30 ora 06 UTC
Vânt 11 kt de la Est/Nord-est
Vizibilitate: 10 km
Nori împrăștiați la o înălțime de 1600 picior
Nori împrăștiați la o înălțime de 6000 picior

TAF: PTRO 290525Z 2906/3006 06011KT P6SM SCT016 SCT060

Observații și prognoze meteo pentru peste 4.000 de aeroporturi (rapoarte METAR și TAF).

Stațiile disponibile sunt reprezentate pe hartă prin puncte galbene și roșii.

Țineți indicatorul mouse-ului pe punctul dorit pentru a vedea denumirea stației.

Apoi, faceți clic pentru a vedea observațiile și prognozele meteorologice.

Pentru a schimba harta: Pentru mărire, faceți clic pe butoanele verzi cu cruce neagră; pentru micșorare, pe butonul verde cu o liniuță; pentru hărți învecinate, pe săgețile verzi.


METAR-TAF: